WZZ2863 EGKK-LHBP
Flight info
| Callsign | WZZ2863 |
|---|---|
| Flight time | N/A |
| Altitude | 33000 |
| Route | MIMFO Y312 DVR UL9 KONAN DCT KOK UL607 REMBA DCT MATUG DCT GUBAX DCT BARSU DCT MOOCE DCT RUDNO DCT DEXIT DCT ABLOM DCT XENAK/N0362F230 L175 ANEXA |
| Aircraft | A21N/M-SDE1E2E3FGIJ1J4RWXY/LB1 |
Departure
| Time | 2026-05-03 21:59 |
|---|---|
| Airport | London Gatwick Airport (EGKK) |
Arrival
| Time | N/A |
|---|---|
| Airport | Budapest Liszt Ferenc International Airport (LHBP) |
| Time | Latitude | Longitude | Altitude | Speed | Heading |
|---|---|---|---|---|---|
| 2026-05-03 21:22 | 51.15503 | -0.16844 | 216 ft | 0 kts | 347° |
| 2026-05-03 21:39 | 51.15502 | -0.16844 | 216 ft | 0 kts | 347° |
| 2026-05-03 21:50 | 51.15483 | -0.16838 | 215 ft | 4 kts | 358° |
| 2026-05-03 21:50 | 51.15458 | -0.16844 | 217 ft | 4 kts | 28° |
| 2026-05-03 21:50 | 51.15442 | -0.16870 | 218 ft | 3 kts | 76° |
| 2026-05-03 21:51 | 51.15442 | -0.16874 | 218 ft | 0 kts | 78° |
| 2026-05-03 21:54 | 51.15446 | -0.16842 | 219 ft | 6 kts | 78° |
| 2026-05-03 21:54 | 51.15449 | -0.16764 | 222 ft | 8 kts | 111° |
| 2026-05-03 21:55 | 51.15397 | -0.16714 | 219 ft | 10 kts | 166° |
| 2026-05-03 21:55 | 51.15325 | -0.16682 | 218 ft | 12 kts | 163° |
| 2026-05-03 21:55 | 51.15264 | -0.16658 | 218 ft | 7 kts | 167° |
| 2026-05-03 21:55 | 51.15247 | -0.16652 | 215 ft | 0 kts | 168° |
| 2026-05-03 21:57 | 51.15229 | -0.16646 | 223 ft | 6 kts | 169° |
| 2026-05-03 21:57 | 51.15171 | -0.16634 | 215 ft | 10 kts | 188° |
| 2026-05-03 21:57 | 51.15131 | -0.16726 | 215 ft | 12 kts | 255° |
| 2026-05-03 21:58 | 51.15119 | -0.16814 | 218 ft | 14 kts | 257° |
| 2026-05-03 21:58 | 51.15050 | -0.17309 | 217 ft | 83 kts | 257° |
| 2026-05-03 21:58 | 51.14876 | -0.18578 | 216 ft | 148 kts | 258° |
| 2026-05-03 21:58 | 51.14564 | -0.20877 | 790 ft | 160 kts | 255° |
| 2026-05-03 21:59 | 51.14389 | -0.22058 | 1182 ft | 163 kts | 256° |
| 2026-05-03 21:59 | 51.14152 | -0.23871 | 1726 ft | 173 kts | 259° |
| 2026-05-03 21:59 | 51.13905 | -0.25822 | 2191 ft | 187 kts | 258° |
| 2026-05-03 21:59 | 51.13654 | -0.27913 | 2717 ft | 200 kts | 264° |
| 2026-05-03 22:00 | 51.13855 | -0.30165 | 3123 ft | 222 kts | 292° |
| 2026-05-03 22:00 | 51.14827 | -0.32135 | 3609 ft | 233 kts | 325° |
| 2026-05-03 22:00 | 51.16348 | -0.32998 | 3928 ft | 235 kts | 358° |
| 2026-05-03 22:00 | 51.17928 | -0.32429 | 4055 ft | 236 kts | 31° |
| 2026-05-03 22:01 | 51.19085 | -0.30613 | 4411 ft | 236 kts | 62° |
| 2026-05-03 22:01 | 51.19581 | -0.28127 | 4810 ft | 237 kts | 81° |
| 2026-05-03 22:01 | 51.19837 | -0.25518 | 5194 ft | 239 kts | 82° |
| 2026-05-03 22:01 | 51.20108 | -0.22887 | 5584 ft | 241 kts | 81° |
| 2026-05-03 22:02 | 51.20410 | -0.20240 | 5934 ft | 249 kts | 80° |
| 2026-05-03 22:02 | 51.20753 | -0.17394 | 6033 ft | 275 kts | 80° |
| 2026-05-03 22:02 | 51.21129 | -0.14394 | 6006 ft | 277 kts | 79° |
| 2026-05-03 22:02 | 51.21517 | -0.11379 | 5964 ft | 276 kts | 79° |
| 2026-05-03 22:03 | 51.21907 | -0.08383 | 5944 ft | 276 kts | 79° |
| 2026-05-03 22:03 | 51.22299 | -0.05377 | 5937 ft | 276 kts | 79° |
| 2026-05-03 22:03 | 51.22691 | -0.02368 | 5935 ft | 277 kts | 79° |
| 2026-05-03 22:03 | 51.23082 | 0.00643 | 5939 ft | 277 kts | 79° |
| 2026-05-03 22:04 | 51.23466 | 0.03609 | 5941 ft | 277 kts | 79° |
| 2026-05-03 22:04 | 51.23855 | 0.06620 | 5942 ft | 276 kts | 79° |
| 2026-05-03 22:04 | 51.24236 | 0.09574 | 5939 ft | 277 kts | 79° |
| 2026-05-03 22:04 | 51.24630 | 0.12634 | 5932 ft | 277 kts | 79° |
| 2026-05-03 22:05 | 51.25017 | 0.15647 | 6146 ft | 276 kts | 79° |
| 2026-05-03 22:05 | 51.25391 | 0.18684 | 6653 ft | 279 kts | 83° |
| 2026-05-03 22:05 | 51.25416 | 0.21730 | 7249 ft | 279 kts | 97° |
| 2026-05-03 22:05 | 51.25183 | 0.24835 | 8040 ft | 283 kts | 99° |
| 2026-05-03 22:06 | 51.24929 | 0.27965 | 8808 ft | 286 kts | 99° |
| 2026-05-03 22:06 | 51.24676 | 0.31149 | 9604 ft | 289 kts | 98° |
| 2026-05-03 22:06 | 51.24426 | 0.34348 | 10360 ft | 292 kts | 99° |
| 2026-05-03 22:06 | 51.24176 | 0.37577 | 11092 ft | 294 kts | 99° |
| 2026-05-03 22:07 | 51.23926 | 0.40830 | 11840 ft | 295 kts | 99° |
| 2026-05-03 22:07 | 51.23677 | 0.44056 | 12609 ft | 296 kts | 99° |
| 2026-05-03 22:07 | 51.23425 | 0.47330 | 13398 ft | 297 kts | 100° |
| 2026-05-03 22:07 | 51.23170 | 0.50617 | 14033 ft | 303 kts | 100° |
| 2026-05-03 22:08 | 51.22903 | 0.54039 | 14326 ft | 320 kts | 100° |
| 2026-05-03 22:08 | 51.22621 | 0.57652 | 14566 ft | 337 kts | 100° |
| 2026-05-03 22:08 | 51.22322 | 0.61464 | 14842 ft | 352 kts | 99° |
| 2026-05-03 22:08 | 51.22015 | 0.65381 | 15390 ft | 358 kts | 99° |
| 2026-05-03 22:09 | 51.21702 | 0.69355 | 16022 ft | 362 kts | 99° |
| 2026-05-03 22:09 | 51.21386 | 0.73358 | 16649 ft | 365 kts | 100° |
| 2026-05-03 22:09 | 51.21067 | 0.77349 | 17264 ft | 368 kts | 100° |
| 2026-05-03 22:10 | 51.20412 | 0.85558 | 18421 ft | 376 kts | 100° |
| 2026-05-03 22:10 | 51.20077 | 0.89715 | 18942 ft | 379 kts | 100° |
| 2026-05-03 22:10 | 51.19738 | 0.93909 | 19473 ft | 382 kts | 100° |
| 2026-05-03 22:10 | 51.19396 | 0.98130 | 19993 ft | 385 kts | 100° |
| 2026-05-03 22:11 | 51.19049 | 1.02384 | 20519 ft | 388 kts | 101° |
| 2026-05-03 22:11 | 51.18694 | 1.06667 | 21015 ft | 391 kts | 101° |
| 2026-05-03 22:11 | 51.18342 | 1.10922 | 21508 ft | 394 kts | 101° |
| 2026-05-03 22:11 | 51.17985 | 1.15269 | 21990 ft | 397 kts | 101° |
| 2026-05-03 22:12 | 51.17622 | 1.19653 | 22470 ft | 400 kts | 101° |
| 2026-05-03 22:12 | 51.17253 | 1.24062 | 22933 ft | 403 kts | 101° |
| 2026-05-03 22:12 | 51.16880 | 1.28501 | 23392 ft | 406 kts | 101° |
| 2026-05-03 22:12 | 51.16502 | 1.32987 | 23789 ft | 409 kts | 101° |
| 2026-05-03 22:13 | 51.16175 | 1.37509 | 24173 ft | 413 kts | 98° |
| 2026-05-03 22:13 | 51.15948 | 1.42093 | 24552 ft | 416 kts | 98° |
| 2026-05-03 22:13 | 51.15735 | 1.46644 | 24917 ft | 418 kts | 98° |
| 2026-05-03 22:13 | 51.15520 | 1.51295 | 25276 ft | 421 kts | 98° |
| 2026-05-03 22:14 | 51.15299 | 1.55965 | 25635 ft | 423 kts | 98° |
| 2026-05-03 22:14 | 51.15068 | 1.60661 | 25993 ft | 426 kts | 99° |
| 2026-05-03 22:14 | 51.14830 | 1.65381 | 26331 ft | 428 kts | 99° |
| 2026-05-03 22:14 | 51.14590 | 1.70126 | 26661 ft | 431 kts | 99° |
| 2026-05-03 22:15 | 51.14346 | 1.74902 | 27000 ft | 433 kts | 99° |
| 2026-05-03 22:15 | 51.14105 | 1.79647 | 27322 ft | 436 kts | 99° |
| 2026-05-03 22:15 | 51.13860 | 1.84487 | 27648 ft | 438 kts | 99° |
| 2026-05-03 22:15 | 51.13610 | 1.89335 | 27967 ft | 441 kts | 99° |
| 2026-05-03 22:16 | 51.13355 | 1.94209 | 28280 ft | 443 kts | 100° |
| 2026-05-03 22:16 | 51.13097 | 1.99110 | 28590 ft | 445 kts | 100° |
| 2026-05-03 22:16 | 51.12837 | 2.04031 | 28890 ft | 448 kts | 100° |
| 2026-05-03 22:16 | 51.12575 | 2.08985 | 29178 ft | 450 kts | 100° |
| 2026-05-03 22:17 | 51.12311 | 2.13962 | 29470 ft | 452 kts | 100° |
| 2026-05-03 22:17 | 51.12044 | 2.18955 | 29749 ft | 454 kts | 100° |
| 2026-05-03 22:17 | 51.11772 | 2.23972 | 30028 ft | 456 kts | 100° |
| 2026-05-03 22:17 | 51.11495 | 2.29022 | 30240 ft | 458 kts | 100° |
| 2026-05-03 22:18 | 51.11219 | 2.34025 | 30459 ft | 460 kts | 101° |
| 2026-05-03 22:18 | 51.10934 | 2.39105 | 30678 ft | 462 kts | 101° |
| 2026-05-03 22:18 | 51.10646 | 2.44208 | 30921 ft | 463 kts | 101° |
| 2026-05-03 22:18 | 51.10357 | 2.49315 | 31182 ft | 463 kts | 101° |
| 2026-05-03 22:19 | 51.10065 | 2.54425 | 31454 ft | 463 kts | 101° |
| 2026-05-03 22:19 | 51.09772 | 2.59522 | 31735 ft | 463 kts | 101° |
| 2026-05-03 22:19 | 51.09427 | 2.64614 | 31986 ft | 460 kts | 105° |
| 2026-05-03 22:19 | 51.08706 | 2.69467 | 32216 ft | 454 kts | 112° |
| 2026-05-03 22:20 | 51.07835 | 2.74312 | 32472 ft | 454 kts | 112° |
| 2026-05-03 22:20 | 51.06952 | 2.79123 | 32706 ft | 454 kts | 112° |
| 2026-05-03 22:20 | 51.06066 | 2.83966 | 32932 ft | 454 kts | 112° |
| 2026-05-03 22:21 | 51.04310 | 2.93552 | 32959 ft | 453 kts | 112° |
| 2026-05-03 22:21 | 51.02552 | 3.03182 | 32938 ft | 454 kts | 112° |
| 2026-05-03 22:22 | 51.00776 | 3.12830 | 32929 ft | 454 kts | 113° |
| 2026-05-03 22:22 | 50.98998 | 3.22422 | 32931 ft | 455 kts | 113° |
| 2026-05-03 22:23 | 50.97209 | 3.32059 | 32933 ft | 456 kts | 113° |
| 2026-05-03 22:23 | 50.95401 | 3.41708 | 32934 ft | 456 kts | 113° |
| 2026-05-03 22:24 | 50.93594 | 3.51327 | 32928 ft | 457 kts | 113° |
| 2026-05-03 22:24 | 50.91762 | 3.61002 | 32929 ft | 458 kts | 113° |
| 2026-05-03 22:25 | 50.89913 | 3.70680 | 32922 ft | 458 kts | 113° |
| 2026-05-03 22:25 | 50.88044 | 3.80358 | 32928 ft | 459 kts | 113° |
| 2026-05-03 22:26 | 50.86181 | 3.89967 | 32932 ft | 459 kts | 113° |
| 2026-05-03 22:26 | 50.84295 | 3.99650 | 32940 ft | 460 kts | 113° |
| 2026-05-03 22:27 | 50.83418 | 4.04135 | 32938 ft | 460 kts | 113° |
| 2026-05-03 22:27 | 50.81523 | 4.13781 | 32931 ft | 460 kts | 113° |
| 2026-05-03 22:28 | 50.79619 | 4.23452 | 32952 ft | 460 kts | 113° |
| 2026-05-03 22:28 | 50.77698 | 4.33118 | 32960 ft | 461 kts | 113° |
| 2026-05-03 22:29 | 50.75769 | 4.42790 | 32960 ft | 461 kts | 113° |
| 2026-05-03 22:29 | 50.73850 | 4.52387 | 32959 ft | 461 kts | 113° |
| 2026-05-03 22:30 | 50.71910 | 4.62059 | 32955 ft | 461 kts | 112° |
| 2026-05-03 22:30 | 50.70048 | 4.71700 | 32963 ft | 458 kts | 112° |
| 2026-05-03 22:31 | 50.68186 | 4.81305 | 32955 ft | 457 kts | 112° |
| 2026-05-03 22:31 | 50.66322 | 4.90913 | 32956 ft | 458 kts | 110° |
| 2026-05-03 22:32 | 50.64711 | 5.00651 | 32955 ft | 458 kts | 109° |
| 2026-05-03 22:32 | 50.63135 | 5.10346 | 32960 ft | 458 kts | 109° |
| 2026-05-03 22:33 | 50.61543 | 5.20063 | 32959 ft | 457 kts | 109° |
| 2026-05-03 22:33 | 50.59954 | 5.29699 | 32961 ft | 457 kts | 109° |
| 2026-05-03 22:34 | 50.58348 | 5.39391 | 32960 ft | 457 kts | 109° |
| 2026-05-03 22:34 | 50.56732 | 5.49064 | 32963 ft | 457 kts | 109° |
| 2026-05-03 22:35 | 50.55119 | 5.58689 | 32961 ft | 457 kts | 109° |
| 2026-05-03 22:35 | 50.53494 | 5.68344 | 32959 ft | 457 kts | 109° |
| 2026-05-03 22:36 | 50.51853 | 5.78012 | 32963 ft | 456 kts | 109° |
| 2026-05-03 22:36 | 50.50205 | 5.87664 | 32967 ft | 457 kts | 109° |
| 2026-05-03 22:37 | 50.48564 | 5.97249 | 32962 ft | 457 kts | 109° |
| 2026-05-03 22:37 | 50.46906 | 6.06872 | 32960 ft | 456 kts | 109° |
| 2026-05-03 22:38 | 50.45243 | 6.16478 | 32965 ft | 456 kts | 109° |
| 2026-05-03 22:38 | 50.43564 | 6.26084 | 32962 ft | 456 kts | 109° |
| 2026-05-03 22:39 | 50.41911 | 6.35621 | 32959 ft | 456 kts | 107° |
| 2026-05-03 22:39 | 50.40986 | 6.45527 | 32967 ft | 459 kts | 99° |
| 2026-05-03 22:40 | 50.40251 | 6.55464 | 32966 ft | 459 kts | 100° |
| 2026-05-03 22:40 | 50.39491 | 6.65369 | 32967 ft | 459 kts | 100° |
| 2026-05-03 22:41 | 50.38715 | 6.75316 | 32972 ft | 458 kts | 100° |
| 2026-05-03 22:41 | 50.37933 | 6.85168 | 32983 ft | 458 kts | 100° |
| 2026-05-03 22:42 | 50.37142 | 6.95092 | 32984 ft | 457 kts | 100° |
| 2026-05-03 22:42 | 50.36347 | 7.04924 | 32983 ft | 457 kts | 100° |
| 2026-05-03 22:43 | 50.35538 | 7.14814 | 32979 ft | 456 kts | 100° |
| 2026-05-03 22:43 | 50.34732 | 7.24641 | 32995 ft | 456 kts | 100° |
| 2026-05-03 22:44 | 50.33910 | 7.34500 | 32988 ft | 456 kts | 100° |
| 2026-05-03 22:44 | 50.33219 | 7.42705 | 32985 ft | 456 kts | 100° |
| 2026-05-03 22:45 | 50.32378 | 7.52514 | 32999 ft | 456 kts | 100° |
| 2026-05-03 22:45 | 50.31536 | 7.62371 | 33001 ft | 456 kts | 100° |
| 2026-05-03 22:46 | 50.30681 | 7.72233 | 32998 ft | 457 kts | 100° |
| 2026-05-03 22:46 | 50.29819 | 7.82018 | 32998 ft | 457 kts | 100° |
| 2026-05-03 22:47 | 50.28908 | 7.91847 | 32996 ft | 455 kts | 103° |
| 2026-05-03 22:47 | 50.27592 | 8.01532 | 33000 ft | 454 kts | 104° |
| 2026-05-03 22:48 | 50.26257 | 8.11144 | 32995 ft | 454 kts | 104° |
| 2026-05-03 22:48 | 50.24908 | 8.20800 | 33000 ft | 454 kts | 104° |
| 2026-05-03 22:49 | 50.23563 | 8.30400 | 33004 ft | 454 kts | 104° |
| 2026-05-03 22:49 | 50.22204 | 8.40045 | 33008 ft | 454 kts | 104° |
| 2026-05-03 22:50 | 50.20839 | 8.49658 | 33001 ft | 454 kts | 104° |
| 2026-05-03 22:50 | 50.19463 | 8.59288 | 33010 ft | 453 kts | 104° |
| 2026-05-03 22:51 | 50.18077 | 8.68884 | 33010 ft | 452 kts | 104° |
| 2026-05-03 22:51 | 50.16699 | 8.78402 | 33012 ft | 452 kts | 104° |
| 2026-05-03 22:52 | 50.15302 | 8.87989 | 33008 ft | 452 kts | 104° |
| 2026-05-03 22:52 | 50.13901 | 8.97507 | 33009 ft | 452 kts | 104° |
| 2026-05-03 22:53 | 50.12491 | 9.07076 | 33009 ft | 452 kts | 104° |
| 2026-05-03 22:53 | 50.11072 | 9.16638 | 33005 ft | 452 kts | 104° |
| 2026-05-03 22:54 | 50.09659 | 9.26145 | 33010 ft | 452 kts | 104° |
| 2026-05-03 22:54 | 50.08250 | 9.35554 | 33014 ft | 452 kts | 104° |
| 2026-05-03 22:55 | 50.06785 | 9.45246 | 33012 ft | 452 kts | 104° |
| 2026-05-03 22:55 | 50.05339 | 9.54729 | 33022 ft | 452 kts | 104° |
| 2026-05-03 22:56 | 50.03882 | 9.64259 | 33016 ft | 453 kts | 104° |
| 2026-05-03 22:56 | 50.02416 | 9.73788 | 33025 ft | 453 kts | 104° |
| 2026-05-03 22:57 | 50.00942 | 9.83330 | 33012 ft | 453 kts | 104° |
| 2026-05-03 22:57 | 49.99460 | 9.92817 | 33008 ft | 453 kts | 104° |
| 2026-05-03 22:58 | 49.97977 | 10.02321 | 33005 ft | 453 kts | 104° |
| 2026-05-03 22:58 | 49.96480 | 10.11819 | 33001 ft | 453 kts | 104° |
| 2026-05-03 22:59 | 49.94971 | 10.21317 | 33000 ft | 452 kts | 104° |
| 2026-05-03 22:59 | 49.93460 | 10.30815 | 32996 ft | 452 kts | 104° |
| 2026-05-03 23:00 | 49.91787 | 10.40152 | 32991 ft | 452 kts | 113° |
| 2026-05-03 23:00 | 49.89156 | 10.49007 | 32994 ft | 451 kts | 116° |
| 2026-05-03 23:01 | 49.86477 | 10.57818 | 32997 ft | 451 kts | 116° |
| 2026-05-03 23:01 | 49.83810 | 10.66607 | 33004 ft | 452 kts | 116° |
| 2026-05-03 23:02 | 49.81136 | 10.75441 | 33011 ft | 452 kts | 116° |
| 2026-05-03 23:02 | 49.78470 | 10.84183 | 33023 ft | 451 kts | 116° |
| 2026-05-03 23:03 | 49.75776 | 10.92979 | 33032 ft | 451 kts | 116° |
| 2026-05-03 23:03 | 49.73087 | 11.01752 | 33026 ft | 451 kts | 116° |
| 2026-05-03 23:04 | 49.70402 | 11.10458 | 33027 ft | 451 kts | 116° |
| 2026-05-03 23:04 | 49.67699 | 11.19213 | 33024 ft | 451 kts | 116° |
| 2026-05-03 23:05 | 49.65000 | 11.27902 | 33020 ft | 450 kts | 116° |
| 2026-05-03 23:05 | 49.62289 | 11.36607 | 33025 ft | 449 kts | 116° |
| 2026-05-03 23:06 | 49.59570 | 11.45321 | 33022 ft | 449 kts | 116° |
| 2026-05-03 23:06 | 49.56882 | 11.53961 | 33014 ft | 449 kts | 114° |
| 2026-05-03 23:07 | 49.54723 | 11.63024 | 33006 ft | 449 kts | 109° |
| 2026-05-03 23:07 | 49.52682 | 11.72067 | 33001 ft | 449 kts | 109° |
| 2026-05-03 23:08 | 49.50607 | 11.81148 | 32998 ft | 449 kts | 109° |
| 2026-05-03 23:08 | 49.48523 | 11.90220 | 32993 ft | 449 kts | 109° |
| 2026-05-03 23:09 | 49.46442 | 11.99236 | 32986 ft | 449 kts | 109° |
| 2026-05-03 23:09 | 49.44351 | 12.08256 | 32990 ft | 449 kts | 109° |
| 2026-05-03 23:10 | 49.42239 | 12.17314 | 32985 ft | 449 kts | 109° |
| 2026-05-03 23:10 | 49.40136 | 12.26306 | 32981 ft | 449 kts | 109° |
| 2026-05-03 23:11 | 49.38020 | 12.35334 | 32974 ft | 449 kts | 110° |
| 2026-05-03 23:11 | 49.35888 | 12.44359 | 32975 ft | 449 kts | 109° |
| 2026-05-03 23:12 | 49.33688 | 12.53282 | 32969 ft | 449 kts | 115° |
| 2026-05-03 23:12 | 49.32074 | 12.57392 | 32981 ft | 449 kts | 126° |
| 2026-05-03 23:12 | 49.30219 | 12.61250 | 32985 ft | 449 kts | 127° |
| 2026-05-03 23:13 | 49.26451 | 12.68924 | 32983 ft | 449 kts | 127° |
| 2026-05-03 23:13 | 49.22736 | 12.76565 | 32982 ft | 450 kts | 126° |
| 2026-05-03 23:14 | 49.18998 | 12.84273 | 32986 ft | 450 kts | 126° |
| 2026-05-03 23:14 | 49.15286 | 12.91919 | 32989 ft | 451 kts | 126° |
| 2026-05-03 23:15 | 49.11535 | 12.99615 | 32989 ft | 451 kts | 126° |
| 2026-05-03 23:15 | 49.07778 | 13.07303 | 32987 ft | 451 kts | 126° |
| 2026-05-03 23:16 | 49.04650 | 13.13681 | 32984 ft | 451 kts | 126° |